Time;durP1;ratioP1;P1;durP2;ratioP2;P2;SDS_P1;SDS_P2;PMS_P1;PMS_P2;Temp;Humidity;BMP_temperature;BMP_pressure;BME280_temperature;BME280_humidity;BME280_pressure;Samples;Min_cycle;Max_cycle;Signal;HPM_P1;HPM_P2
2023/11/11 00:00:01;;;;;;;15.50;9.30;;;;;;;-128.00;-1.00;-1.00;105413;1254;1004624;-79
2023/11/11 00:02:29;;;;;;;10.80;6.90;;;;;;;-128.00;-1.00;-1.00;105429;1252;1046904;-79
2023/11/11 00:04:57;;;;;;;13.10;7.10;;;;;;;-128.00;-1.00;-1.00;105400;1252;1003868;-78
2023/11/11 00:07:24;;;;;;;14.50;7.60;;;;;;;-128.00;-1.00;-1.00;105421;1252;1004572;-79
2023/11/11 00:09:50;;;;;;;15.40;7.00;;;;;;;-128.00;-1.00;-1.00;105426;1254;1004485;-78
2023/11/11 00:12:17;;;;;;;11.00;7.40;;;;;;;-128.00;-1.00;-1.00;105442;1253;1004426;-79
2023/11/11 00:14:44;;;;;;;13.50;7.90;;;;;;;-128.00;-1.00;-1.00;105407;1253;1004546;-79
2023/11/11 00:17:11;;;;;;;12.70;6.80;;;;;;;-128.00;-1.00;-1.00;105423;1252;1004321;-79
2023/11/11 00:19:38;;;;;;;22.30;10.10;;;;;;;-128.00;-1.00;-1.00;105430;1252;1004107;-79
2023/11/11 00:22:05;;;;;;;11.40;7.10;;;;;;;-128.00;-1.00;-1.00;105397;1253;1005279;-78
2023/11/11 00:24:31;;;;;;;12.20;6.90;;;;;;;-128.00;-1.00;-1.00;105384;1254;1003384;-79
2023/11/11 00:26:58;;;;;;;10.80;6.80;;;;;;;-128.00;-1.00;-1.00;105439;1253;1004319;-78
2023/11/11 00:29:25;;;;;;;14.80;7.80;;;;;;;-128.00;-1.00;-1.00;105390;1253;1004170;-79
2023/11/11 00:31:52;;;;;;;12.60;8.60;;;;;;;-128.00;-1.00;-1.00;105405;1253;1003920;-79
2023/11/11 00:34:20;;;;;;;10.60;7.30;;;;;;;-128.00;-1.00;-1.00;105373;1252;1005122;-79
2023/11/11 00:36:50;;;;;;;11.40;6.90;;;;;;;-128.00;-1.00;-1.00;105418;1253;1004900;-79
2023/11/11 00:39:16;;;;;;;10.10;7.60;;;;;;;-128.00;-1.00;-1.00;105449;1253;1047137;-79
2023/11/11 00:41:43;;;;;;;11.20;7.60;;;;;;;-128.00;-1.00;-1.00;105438;1253;1004231;-79
2023/11/11 00:44:10;;;;;;;11.00;6.10;;;;;;;-128.00;-1.00;-1.00;105412;1253;1004203;-79
2023/11/11 00:46:39;;;;;;;9.20;6.30;;;;;;;-128.00;-1.00;-1.00;105409;1253;1004138;-79
2023/11/11 00:49:07;;;;;;;9.50;5.60;;;;;;;-128.00;-1.00;-1.00;105380;1252;1046580;-78
2023/11/11 00:51:36;;;;;;;14.50;6.80;;;;;;;-128.00;-1.00;-1.00;105397;1253;1004056;-78
2023/11/11 00:54:03;;;;;;;9.30;7.10;;;;;;;-128.00;-1.00;-1.00;105468;1252;1062202;-79
2023/11/11 00:56:29;;;;;;;10.10;5.90;;;;;;;-128.00;-1.00;-1.00;105397;1252;1005080;-79
2023/11/11 00:58:57;;;;;;;10.90;5.70;;;;;;;-128.00;-1.00;-1.00;105381;1253;1004107;-79
2023/11/11 01:01:24;;;;;;;10.70;6.30;;;;;;;-128.00;-1.00;-1.00;105441;1252;1003712;-79
2023/11/11 01:03:50;;;;;;;9.00;5.60;;;;;;;-128.00;-1.00;-1.00;105373;1253;1004603;-78
2023/11/11 01:06:17;;;;;;;9.50;5.80;;;;;;;-128.00;-1.00;-1.00;105471;1252;1003759;-79
2023/11/11 01:08:45;;;;;;;9.70;5.00;;;;;;;-128.00;-1.00;-1.00;105411;1252;1005095;-78
2023/11/11 01:11:11;;;;;;;9.60;5.50;;;;;;;-128.00;-1.00;-1.00;105413;1252;1004084;-78
2023/11/11 01:13:38;;;;;;;8.10;5.40;;;;;;;-128.00;-1.00;-1.00;105355;1253;1004707;-78
2023/11/11 01:16:04;;;;;;;8.10;5.50;;;;;;;-128.00;-1.00;-1.00;105439;1253;1003798;-78
2023/11/11 01:18:34;;;;;;;8.20;4.80;;;;;;;-128.00;-1.00;-1.00;105381;1253;1004609;-78
2023/11/11 01:21:03;;;;;;;9.10;4.70;;;;;;;-128.00;-1.00;-1.00;105441;1252;1058752;-78
2023/11/11 01:23:30;;;;;;;8.00;4.80;;;;;;;-128.00;-1.00;-1.00;105401;1252;1059843;-79
2023/11/11 01:25:57;;;;;;;8.40;5.10;;;;;;;-128.00;-1.00;-1.00;105393;1253;1003917;-78
2023/11/11 01:28:23;;;;;;;17.20;7.00;;;;;;;-128.00;-1.00;-1.00;105397;1252;1004294;-78
2023/11/11 01:30:50;;;;;;;8.20;4.80;;;;;;;-128.00;-1.00;-1.00;105441;1253;1004989;-79
2023/11/11 01:33:17;;;;;;;14.10;5.80;;;;;;;-128.00;-1.00;-1.00;105392;1252;1004549;-79
2023/11/11 01:35:43;;;;;;;7.30;4.20;;;;;;;-128.00;-1.00;-1.00;105436;1253;1004668;-79
2023/11/11 01:38:12;;;;;;;7.30;4.50;;;;;;;-128.00;-1.00;-1.00;105404;1253;1004234;-79
2023/11/11 01:40:39;;;;;;;6.70;4.70;;;;;;;-128.00;-1.00;-1.00;105433;1252;1047108;-78
2023/11/11 01:43:15;;;;;;;7.10;4.50;;;;;;;-128.00;-1.00;-1.00;105372;1252;1004322;-79
2023/11/11 01:45:43;;;;;;;6.80;3.90;;;;;;;-128.00;-1.00;-1.00;105317;1253;1057963;-78
2023/11/11 01:48:13;;;;;;;6.30;3.30;;;;;;;-128.00;-1.00;-1.00;105396;1253;1004631;-78
2023/11/11 01:50:42;;;;;;;7.00;3.50;;;;;;;-128.00;-1.00;-1.00;105389;1253;1044949;-78
2023/11/11 01:53:10;;;;;;;6.00;4.00;;;;;;;-128.00;-1.00;-1.00;105358;1253;1047275;-79
2023/11/11 01:55:36;;;;;;;6.10;3.90;;;;;;;-128.00;-1.00;-1.00;105434;1253;1004315;-79
2023/11/11 01:58:04;;;;;;;7.40;4.70;;;;;;;-128.00;-1.00;-1.00;105413;1252;1005352;-78
2023/11/11 02:00:35;;;;;;;17.80;13.80;;;;;;;-128.00;-1.00;-1.00;105462;1252;1003886;-79
2023/11/11 02:03:03;;;;;;;13.90;7.60;;;;;;;-128.00;-1.00;-1.00;105394;1253;1044814;-78
2023/11/11 02:05:29;;;;;;;10.70;5.00;;;;;;;-128.00;-1.00;-1.00;105458;1252;1004590;-78
2023/11/11 02:07:57;;;;;;;49.60;22.10;;;;;;;-128.00;-1.00;-1.00;105431;1252;1005098;-78
2023/11/11 02:10:24;;;;;;;17.90;12.90;;;;;;;-128.00;-1.00;-1.00;105435;1253;1003808;-79
2023/11/11 02:12:52;;;;;;;35.30;28.20;;;;;;;-128.00;-1.00;-1.00;105368;1253;1003816;-79
2023/11/11 02:15:19;;;;;;;20.10;13.70;;;;;;;-128.00;-1.00;-1.00;105355;1253;1004065;-78
2023/11/11 02:17:46;;;;;;;7.60;4.80;;;;;;;-128.00;-1.00;-1.00;105440;1252;1004441;-78
2023/11/11 02:20:12;;;;;;;11.40;6.30;;;;;;;-128.00;-1.00;-1.00;105402;1253;1004543;-79
2023/11/11 02:22:39;;;;;;;11.30;7.60;;;;;;;-128.00;-1.00;-1.00;105386;1252;1003912;-79
2023/11/11 02:25:08;;;;;;;19.50;13.70;;;;;;;-128.00;-1.00;-1.00;105438;1252;1003860;-78
2023/11/11 02:27:35;;;;;;;10.80;8.20;;;;;;;-128.00;-1.00;-1.00;105444;1252;1044959;-79
2023/11/11 02:30:03;;;;;;;8.90;4.00;;;;;;;-128.00;-1.00;-1.00;105448;1252;1003936;-78
2023/11/11 02:32:31;;;;;;;7.00;4.80;;;;;;;-128.00;-1.00;-1.00;105463;1252;1004037;-78
2023/11/11 02:34:58;;;;;;;6.20;4.90;;;;;;;-128.00;-1.00;-1.00;105451;1252;1003259;-78
2023/11/11 02:37:24;;;;;;;7.10;4.10;;;;;;;-128.00;-1.00;-1.00;105410;1252;1005291;-79
2023/11/11 02:39:51;;;;;;;9.40;6.40;;;;;;;-128.00;-1.00;-1.00;105439;1252;1005111;-79
2023/11/11 02:42:18;;;;;;;5.90;4.20;;;;;;;-128.00;-1.00;-1.00;105433;1253;1003329;-78
2023/11/11 02:44:45;;;;;;;3.80;3.10;;;;;;;-128.00;-1.00;-1.00;105454;1252;1004363;-78
2023/11/11 02:47:11;;;;;;;22.40;17.20;;;;;;;-128.00;-1.00;-1.00;105421;1252;1005114;-79
2023/11/11 02:49:38;;;;;;;9.70;7.00;;;;;;;-128.00;-1.00;-1.00;105417;1253;1004900;-79
2023/11/11 02:52:05;;;;;;;14.80;7.80;;;;;;;-128.00;-1.00;-1.00;105376;1252;1004567;-78
2023/11/11 02:54:32;;;;;;;19.50;8.00;;;;;;;-128.00;-1.00;-1.00;105455;1252;1004497;-78
2023/11/11 02:56:58;;;;;;;86.10;67.10;;;;;;;-128.00;-1.00;-1.00;105384;1253;1003934;-78
2023/11/11 02:59:25;;;;;;;42.20;35.10;;;;;;;-128.00;-1.00;-1.00;105465;1252;1004302;-79
2023/11/11 03:01:51;;;;;;;16.70;9.70;;;;;;;-128.00;-1.00;-1.00;105439;1252;1004160;-78
2023/11/11 03:04:18;;;;;;;10.30;6.60;;;;;;;-128.00;-1.00;-1.00;105418;1253;1004470;-78
2023/11/11 03:06:46;;;;;;;10.70;6.30;;;;;;;-128.00;-1.00;-1.00;105428;1252;1004526;-79
2023/11/11 03:09:12;;;;;;;10.20;5.80;;;;;;;-128.00;-1.00;-1.00;105425;1252;1003803;-78
2023/11/11 03:11:39;;;;;;;9.40;5.40;;;;;;;-128.00;-1.00;-1.00;105437;1252;1004135;-79
2023/11/11 03:14:06;;;;;;;7.50;5.30;;;;;;;-128.00;-1.00;-1.00;105456;1252;1003929;-79
2023/11/11 03:16:36;;;;;;;7.00;5.00;;;;;;;-128.00;-1.00;-1.00;105412;1252;1004103;-79
2023/11/11 03:19:04;;;;;;;5.90;3.80;;;;;;;-128.00;-1.00;-1.00;105462;1253;1047153;-79
2023/11/11 03:21:31;;;;;;;10.10;6.00;;;;;;;-128.00;-1.00;-1.00;105385;1253;1003675;-79
2023/11/11 03:23:58;;;;;;;10.80;7.30;;;;;;;-128.00;-1.00;-1.00;105365;1253;1004487;-78
2023/11/11 03:26:24;;;;;;;13.80;10.00;;;;;;;-128.00;-1.00;-1.00;105388;1253;1004511;-79
2023/11/11 03:28:52;;;;;;;14.30;9.90;;;;;;;-128.00;-1.00;-1.00;105397;1252;1004278;-78
2023/11/11 03:31:19;;;;;;;9.30;6.80;;;;;;;-128.00;-1.00;-1.00;105364;1253;1003879;-78
2023/11/11 03:33:48;;;;;;;7.30;5.40;;;;;;;-128.00;-1.00;-1.00;105368;1252;1003749;-78
2023/11/11 03:36:14;;;;;;;6.60;4.40;;;;;;;-128.00;-1.00;-1.00;105443;1252;1059025;-79
2023/11/11 03:38:41;;;;;;;7.50;4.20;;;;;;;-128.00;-1.00;-1.00;105438;1252;1004684;-79
2023/11/11 03:41:08;;;;;;;5.90;4.10;;;;;;;-128.00;-1.00;-1.00;105378;1252;1005793;-78
2023/11/11 03:43:38;;;;;;;6.90;4.20;;;;;;;-128.00;-1.00;-1.00;105432;1252;1004697;-79
2023/11/11 03:46:04;;;;;;;6.60;3.90;;;;;;;-128.00;-1.00;-1.00;105435;1252;1062853;-79
2023/11/11 03:48:31;;;;;;;6.40;4.20;;;;;;;-128.00;-1.00;-1.00;105413;1253;1004782;-78
2023/11/11 03:50:57;;;;;;;7.40;4.30;;;;;;;-128.00;-1.00;-1.00;105403;1252;1004258;-78
2023/11/11 03:53:24;;;;;;;5.40;4.00;;;;;;;-128.00;-1.00;-1.00;105407;1252;1004253;-78
2023/11/11 03:55:51;;;;;;;6.40;4.60;;;;;;;-128.00;-1.00;-1.00;105417;1252;1004001;-79
2023/11/11 03:58:18;;;;;;;7.50;4.20;;;;;;;-128.00;-1.00;-1.00;105394;1253;1004385;-79
2023/11/11 04:00:45;;;;;;;7.10;4.70;;;;;;;-128.00;-1.00;-1.00;105413;1253;1004826;-79
2023/11/11 04:03:12;;;;;;;7.50;4.90;;;;;;;-128.00;-1.00;-1.00;105421;1252;1004388;-79
2023/11/11 04:05:39;;;;;;;9.30;5.40;;;;;;;-128.00;-1.00;-1.00;105430;1252;1004724;-79
2023/11/11 04:08:06;;;;;;;8.40;5.20;;;;;;;-128.00;-1.00;-1.00;105343;1252;1004271;-79
2023/11/11 04:10:32;;;;;;;9.90;4.90;;;;;;;-128.00;-1.00;-1.00;105321;1252;1004070;-79
2023/11/11 04:13:00;;;;;;;7.10;5.00;;;;;;;-128.00;-1.00;-1.00;105401;1252;1004430;-79
2023/11/11 04:15:27;;;;;;;6.10;4.50;;;;;;;-128.00;-1.00;-1.00;105318;1252;1004953;-80
2023/11/11 04:17:53;;;;;;;6.30;4.20;;;;;;;-128.00;-1.00;-1.00;105257;1253;1005258;-79
2023/11/11 04:20:20;;;;;;;6.70;4.60;;;;;;;-128.00;-1.00;-1.00;105412;1253;1004068;-79
2023/11/11 04:22:47;;;;;;;5.50;3.90;;;;;;;-128.00;-1.00;-1.00;105386;1252;1004901;-79
2023/11/11 04:25:14;;;;;;;9.30;4.50;;;;;;;-128.00;-1.00;-1.00;105450;1252;1004191;-78
2023/11/11 04:27:40;;;;;;;14.70;6.10;;;;;;;-128.00;-1.00;-1.00;105403;1253;1004226;-78
2023/11/11 04:30:07;;;;;;;10.30;7.30;;;;;;;-128.00;-1.00;-1.00;105524;1252;1005094;-78
2023/11/11 04:32:34;;;;;;;8.10;4.70;;;;;;;-128.00;-1.00;-1.00;105428;1252;1004882;-78
2023/11/11 04:35:01;;;;;;;17.60;8.70;;;;;;;-128.00;-1.00;-1.00;105403;1252;1003742;-79
2023/11/11 04:37:27;;;;;;;10.00;5.40;;;;;;;-128.00;-1.00;-1.00;105381;1252;1004243;-79
2023/11/11 04:40:00;;;;;;;13.10;7.60;;;;;;;-128.00;-1.00;-1.00;105290;1252;1005686;-79
2023/11/11 04:42:26;;;;;;;24.10;19.60;;;;;;;-128.00;-1.00;-1.00;105390;1253;1045510;-78
2023/11/11 04:44:53;;;;;;;16.40;10.90;;;;;;;-128.00;-1.00;-1.00;105433;1252;1003671;-79
2023/11/11 04:47:23;;;;;;;22.50;13.90;;;;;;;-128.00;-1.00;-1.00;105388;1252;1004118;-79
2023/11/11 04:49:49;;;;;;;28.80;13.60;;;;;;;-128.00;-1.00;-1.00;105447;1252;1057322;-78
2023/11/11 04:52:16;;;;;;;29.30;12.60;;;;;;;-128.00;-1.00;-1.00;105376;1252;1004503;-79
2023/11/11 04:54:43;;;;;;;57.40;39.60;;;;;;;-128.00;-1.00;-1.00;105435;1252;1004658;-79
2023/11/11 04:57:09;;;;;;;22.60;17.10;;;;;;;-128.00;-1.00;-1.00;105378;1252;1004360;-78
2023/11/11 04:59:36;;;;;;;28.90;15.00;;;;;;;-128.00;-1.00;-1.00;105455;1252;1004089;-79
2023/11/11 05:02:04;;;;;;;24.40;12.20;;;;;;;-128.00;-1.00;-1.00;105406;1252;1003527;-78
2023/11/11 05:04:31;;;;;;;56.90;32.90;;;;;;;-128.00;-1.00;-1.00;105419;1252;1060206;-78
2023/11/11 05:06:58;;;;;;;47.20;30.80;;;;;;;-128.00;-1.00;-1.00;105449;1252;1004094;-78
2023/11/11 05:09:26;;;;;;;27.50;21.20;;;;;;;-128.00;-1.00;-1.00;105437;1252;1004588;-78
2023/11/11 05:11:52;;;;;;;18.30;10.40;;;;;;;-128.00;-1.00;-1.00;105394;1252;1003761;-78
2023/11/11 05:14:19;;;;;;;16.40;9.30;;;;;;;-128.00;-1.00;-1.00;105459;1252;1003374;-79
2023/11/11 05:16:50;;;;;;;29.90;15.20;;;;;;;-128.00;-1.00;-1.00;105385;1252;1004654;-79
2023/11/11 05:19:24;;;;;;;22.30;12.60;;;;;;;-128.00;-1.00;-1.00;105447;1252;1046453;-78
2023/11/11 05:21:52;;;;;;;21.20;13.70;;;;;;;-128.00;-1.00;-1.00;105390;1253;1045925;-78
2023/11/11 05:24:20;;;;;;;23.20;15.00;;;;;;;-128.00;-1.00;-1.00;105371;1253;1003960;-78
2023/11/11 05:26:46;;;;;;;32.80;15.90;;;;;;;-128.00;-1.00;-1.00;105405;1253;1004015;-78
2023/11/11 05:29:13;;;;;;;49.00;38.70;;;;;;;-128.00;-1.00;-1.00;105404;1252;1005218;-78
2023/11/11 05:31:39;;;;;;;30.90;24.80;;;;;;;-128.00;-1.00;-1.00;105379;1252;1004727;-78
2023/11/11 05:34:07;;;;;;;21.30;14.10;;;;;;;-128.00;-1.00;-1.00;105408;1252;1003415;-78
2023/11/11 05:36:34;;;;;;;28.00;14.50;;;;;;;-128.00;-1.00;-1.00;105413;1252;1003937;-79
2023/11/11 05:39:01;;;;;;;29.60;14.50;;;;;;;-128.00;-1.00;-1.00;105407;1252;1005236;-78
2023/11/11 05:41:29;;;;;;;26.60;14.70;;;;;;;-128.00;-1.00;-1.00;105453;1252;1004701;-79
2023/11/11 05:43:56;;;;;;;14.70;8.60;;;;;;;-128.00;-1.00;-1.00;105404;1252;1044790;-78
2023/11/11 05:46:26;;;;;;;14.20;7.50;;;;;;;-128.00;-1.00;-1.00;105405;1252;1003919;-78
2023/11/11 05:48:52;;;;;;;13.30;7.40;;;;;;;-128.00;-1.00;-1.00;105362;1252;1062956;-78
2023/11/11 05:51:19;;;;;;;28.00;14.60;;;;;;;-128.00;-1.00;-1.00;105416;1253;1004002;-78
2023/11/11 05:53:45;;;;;;;60.60;37.30;;;;;;;-128.00;-1.00;-1.00;105389;1252;1003599;-78
2023/11/11 05:56:13;;;;;;;51.10;31.80;;;;;;;-128.00;-1.00;-1.00;105569;1252;1004424;-79
2023/11/11 05:58:39;;;;;;;117.00;56.80;;;;;;;-128.00;-1.00;-1.00;105440;1253;1004319;-79
2023/11/11 06:01:06;;;;;;;74.30;43.70;;;;;;;-128.00;-1.00;-1.00;105442;1253;1004124;-79
2023/11/11 06:03:33;;;;;;;92.10;55.90;;;;;;;-128.00;-1.00;-1.00;105427;1253;1004983;-78
2023/11/11 06:06:03;;;;;;;65.10;44.30;;;;;;;-128.00;-1.00;-1.00;105471;1252;1003621;-78
2023/11/11 06:08:29;;;;;;;59.60;44.70;;;;;;;-128.00;-1.00;-1.00;105406;1252;1046180;-78
2023/11/11 06:10:56;;;;;;;45.70;24.10;;;;;;;-128.00;-1.00;-1.00;105407;1252;1004288;-79
2023/11/11 06:13:22;;;;;;;50.10;25.70;;;;;;;-128.00;-1.00;-1.00;105435;1252;1004770;-78
2023/11/11 06:15:49;;;;;;;39.30;24.50;;;;;;;-128.00;-1.00;-1.00;105453;1253;1003354;-79
2023/11/11 06:18:15;;;;;;;30.60;20.70;;;;;;;-128.00;-1.00;-1.00;105381;1253;1004998;-78
2023/11/11 06:20:42;;;;;;;43.80;28.80;;;;;;;-128.00;-1.00;-1.00;105405;1252;1005240;-78
2023/11/11 06:23:09;;;;;;;49.20;27.70;;;;;;;-128.00;-1.00;-1.00;105402;1253;1005093;-79
2023/11/11 06:25:35;;;;;;;33.90;21.20;;;;;;;-128.00;-1.00;-1.00;105440;1252;1004756;-78
2023/11/11 06:28:02;;;;;;;19.90;13.70;;;;;;;-128.00;-1.00;-1.00;105380;1252;1004203;-78
2023/11/11 06:30:29;;;;;;;15.90;8.40;;;;;;;-128.00;-1.00;-1.00;105411;1252;1004330;-78
2023/11/11 06:32:56;;;;;;;20.90;11.10;;;;;;;-128.00;-1.00;-1.00;105272;1253;1004548;-78
2023/11/11 06:35:26;;;;;;;12.80;8.00;;;;;;;-128.00;-1.00;-1.00;105436;1252;1003614;-78
2023/11/11 06:38:02;;;;;;;10.90;7.20;;;;;;;-128.00;-1.00;-1.00;105353;1252;1061582;-79
2023/11/11 06:40:30;;;;;;;8.80;5.50;;;;;;;-128.00;-1.00;-1.00;105399;1253;1058177;-79
2023/11/11 06:42:57;;;;;;;8.50;6.70;;;;;;;-128.00;-1.00;-1.00;105340;1253;1059836;-79
2023/11/11 06:45:24;;;;;;;6.10;4.80;;;;;;;-128.00;-1.00;-1.00;105457;1251;1003809;-78
2023/11/11 06:47:51;;;;;;;6.70;4.30;;;;;;;-128.00;-1.00;-1.00;105407;1253;1004575;-78
2023/11/11 06:50:18;;;;;;;8.80;4.80;;;;;;;-128.00;-1.00;-1.00;105428;1252;1004073;-79
2023/11/11 06:52:44;;;;;;;5.60;4.20;;;;;;;-128.00;-1.00;-1.00;105394;1253;1004405;-78
2023/11/11 06:55:12;;;;;;;8.50;6.00;;;;;;;-128.00;-1.00;-1.00;105432;1252;1004829;-79
2023/11/11 06:57:38;;;;;;;10.30;5.70;;;;;;;-128.00;-1.00;-1.00;105394;1253;1003635;-78
2023/11/11 07:00:08;;;;;;;10.80;7.50;;;;;;;-128.00;-1.00;-1.00;105427;1253;1004052;-78
2023/11/11 07:02:34;;;;;;;21.30;13.20;;;;;;;-128.00;-1.00;-1.00;105392;1252;1060632;-78
2023/11/11 07:05:04;;;;;;;11.80;7.20;;;;;;;-128.00;-1.00;-1.00;105406;1253;1004446;-79
2023/11/11 07:07:31;;;;;;;13.00;7.50;;;;;;;-128.00;-1.00;-1.00;105429;1253;1060184;-79
2023/11/11 07:09:58;;;;;;;6.70;4.60;;;;;;;-128.00;-1.00;-1.00;105516;1252;1004621;-79
2023/11/11 07:12:24;;;;;;;6.60;4.80;;;;;;;-128.00;-1.00;-1.00;105368;1253;1004506;-78
2023/11/11 07:14:51;;;;;;;14.00;6.40;;;;;;;-128.00;-1.00;-1.00;105374;1253;1003905;-78
2023/11/11 07:17:18;;;;;;;7.40;5.30;;;;;;;-128.00;-1.00;-1.00;105387;1253;1004058;-78
2023/11/11 07:19:45;;;;;;;10.00;5.30;;;;;;;-128.00;-1.00;-1.00;105410;1253;1004227;-78
2023/11/11 07:22:14;;;;;;;5.70;4.30;;;;;;;-128.00;-1.00;-1.00;105390;1253;1004938;-79
2023/11/11 07:24:41;;;;;;;9.10;4.30;;;;;;;-128.00;-1.00;-1.00;105441;1253;1048374;-79
2023/11/11 07:27:08;;;;;;;5.10;3.70;;;;;;;-128.00;-1.00;-1.00;105392;1253;1004594;-79
2023/11/11 07:29:35;;;;;;;8.60;4.40;;;;;;;-128.00;-1.00;-1.00;105386;1253;1004079;-78
2023/11/11 07:32:01;;;;;;;5.60;3.90;;;;;;;-128.00;-1.00;-1.00;105393;1253;1004688;-79
2023/11/11 07:34:28;;;;;;;5.70;3.70;;;;;;;-128.00;-1.00;-1.00;105407;1252;1003568;-79
2023/11/11 07:36:54;;;;;;;5.40;4.00;;;;;;;-128.00;-1.00;-1.00;105372;1253;1004810;-79
2023/11/11 07:39:21;;;;;;;4.90;3.40;;;;;;;-128.00;-1.00;-1.00;105420;1253;1004698;-78
2023/11/11 07:41:50;;;;;;;7.50;5.20;;;;;;;-128.00;-1.00;-1.00;105488;1252;1004473;-79
2023/11/11 07:44:17;;;;;;;7.10;4.70;;;;;;;-128.00;-1.00;-1.00;105390;1253;1060050;-78
2023/11/11 07:46:43;;;;;;;9.20;6.50;;;;;;;-128.00;-1.00;-1.00;105387;1253;1003925;-79
2023/11/11 07:49:13;;;;;;;15.90;10.70;;;;;;;-128.00;-1.00;-1.00;105380;1253;1004630;-80
2023/11/11 07:51:40;;;;;;;12.60;8.80;;;;;;;-128.00;-1.00;-1.00;105399;1252;1062143;-79
2023/11/11 07:54:06;;;;;;;15.20;8.90;;;;;;;-128.00;-1.00;-1.00;105392;1253;1004890;-79
2023/11/11 07:56:34;;;;;;;13.30;10.10;;;;;;;-128.00;-1.00;-1.00;105397;1253;1003798;-79
2023/11/11 07:59:02;;;;;;;13.90;10.80;;;;;;;-128.00;-1.00;-1.00;105452;1252;1004496;-79
2023/11/11 08:01:32;;;;;;;8.60;6.70;;;;;;;-128.00;-1.00;-1.00;105387;1256;1004598;-79
2023/11/11 08:03:58;;;;;;;8.30;5.50;;;;;;;-128.00;-1.00;-1.00;105359;1253;1063170;-78
2023/11/11 08:06:25;;;;;;;13.30;8.50;;;;;;;-128.00;-1.00;-1.00;105428;1252;1004378;-78
2023/11/11 08:08:55;;;;;;;9.40;6.00;;;;;;;-128.00;-1.00;-1.00;105418;1252;1003882;-78
2023/11/11 08:11:22;;;;;;;14.60;10.00;;;;;;;-128.00;-1.00;-1.00;105339;1253;1044855;-79
2023/11/11 08:13:48;;;;;;;16.90;10.80;;;;;;;-128.00;-1.00;-1.00;105416;1254;1003550;-79
2023/11/11 08:16:18;;;;;;;14.00;9.90;;;;;;;-128.00;-1.00;-1.00;105436;1253;1004614;-79
2023/11/11 08:18:45;;;;;;;13.40;9.30;;;;;;;-128.00;-1.00;-1.00;105321;1256;1058605;-79
2023/11/11 08:21:12;;;;;;;18.60;10.60;;;;;;;-128.00;-1.00;-1.00;105388;1253;1003727;-79
2023/11/11 08:23:38;;;;;;;21.20;13.70;;;;;;;-128.00;-1.00;-1.00;105394;1253;1004775;-78
2023/11/11 08:26:06;;;;;;;32.50;19.00;;;;;;;-128.00;-1.00;-1.00;105419;1253;1004791;-78
2023/11/11 08:28:32;;;;;;;24.60;15.00;;;;;;;-128.00;-1.00;-1.00;105540;1252;1004274;-79
2023/11/11 08:30:59;;;;;;;27.30;18.10;;;;;;;-128.00;-1.00;-1.00;105445;1253;1005568;-78
2023/11/11 08:33:26;;;;;;;25.90;17.30;;;;;;;-128.00;-1.00;-1.00;105410;1254;1004302;-78
2023/11/11 08:35:52;;;;;;;25.10;17.10;;;;;;;-128.00;-1.00;-1.00;105359;1256;1003531;-79
2023/11/11 08:38:19;;;;;;;27.30;19.00;;;;;;;-128.00;-1.00;-1.00;105426;1253;1004592;-79
2023/11/11 08:40:45;;;;;;;35.90;22.10;;;;;;;-128.00;-1.00;-1.00;105445;1252;1004184;-79
2023/11/11 08:43:12;;;;;;;28.30;17.80;;;;;;;-128.00;-1.00;-1.00;105379;1252;1004431;-79
2023/11/11 08:45:38;;;;;;;15.50;10.90;;;;;;;-128.00;-1.00;-1.00;105354;1253;1004916;-79
2023/11/11 08:48:05;;;;;;;10.70;8.30;;;;;;;-128.00;-1.00;-1.00;105390;1253;1004431;-78
2023/11/11 08:50:31;;;;;;;7.80;6.00;;;;;;;-128.00;-1.00;-1.00;105438;1252;1004820;-78
2023/11/11 08:52:58;;;;;;;7.90;5.50;;;;;;;-128.00;-1.00;-1.00;105382;1253;1004212;-78
2023/11/11 08:55:25;;;;;;;11.90;7.30;;;;;;;-128.00;-1.00;-1.00;105431;1252;1004854;-79
2023/11/11 08:57:52;;;;;;;11.30;9.30;;;;;;;-128.00;-1.00;-1.00;105364;1253;1004535;-78
2023/11/11 09:00:19;;;;;;;22.00;13.00;;;;;;;-128.00;-1.00;-1.00;105397;1253;1003392;-78
2023/11/11 09:02:45;;;;;;;17.20;10.20;;;;;;;-128.00;-1.00;-1.00;105359;1253;1003611;-78
2023/11/11 09:05:12;;;;;;;9.20;6.60;;;;;;;-128.00;-1.00;-1.00;105412;1252;1003375;-79
2023/11/11 09:07:39;;;;;;;12.40;7.40;;;;;;;-128.00;-1.00;-1.00;105332;1253;1003428;-78
2023/11/11 09:10:06;;;;;;;10.80;8.40;;;;;;;-128.00;-1.00;-1.00;105406;1252;1003690;-79
2023/11/11 09:12:32;;;;;;;15.30;10.20;;;;;;;-128.00;-1.00;-1.00;105387;1253;1005294;-79
2023/11/11 09:14:59;;;;;;;15.80;9.50;;;;;;;-128.00;-1.00;-1.00;105392;1253;1005130;-79
2023/11/11 09:17:26;;;;;;;22.90;10.60;;;;;;;-128.00;-1.00;-1.00;105394;1253;1004369;-79
2023/11/11 09:19:52;;;;;;;14.20;10.30;;;;;;;-128.00;-1.00;-1.00;105449;1253;1004604;-80
2023/11/11 09:22:19;;;;;;;16.90;11.30;;;;;;;-128.00;-1.00;-1.00;105350;1253;1003899;-80
2023/11/11 09:24:45;;;;;;;10.90;8.10;;;;;;;-128.00;-1.00;-1.00;105341;1253;1004165;-80
2023/11/11 09:27:12;;;;;;;10.00;7.60;;;;;;;-128.00;-1.00;-1.00;105330;1253;1005087;-80
2023/11/11 09:29:38;;;;;;;11.60;8.00;;;;;;;-128.00;-1.00;-1.00;105333;1254;1003891;-79
2023/11/11 09:32:05;;;;;;;9.60;7.10;;;;;;;-128.00;-1.00;-1.00;105358;1253;1004217;-79
2023/11/11 09:34:32;;;;;;;10.30;6.40;;;;;;;-128.00;-1.00;-1.00;105399;1252;1004743;-79
2023/11/11 09:36:59;;;;;;;8.90;6.70;;;;;;;-128.00;-1.00;-1.00;105381;1253;1004229;-80
2023/11/11 09:39:25;;;;;;;10.80;7.10;;;;;;;-128.00;-1.00;-1.00;105424;1253;1004809;-80
2023/11/11 09:41:52;;;;;;;10.00;6.90;;;;;;;-128.00;-1.00;-1.00;105383;1253;1004068;-80
2023/11/11 09:44:18;;;;;;;12.90;8.20;;;;;;;-128.00;-1.00;-1.00;105340;1253;1004169;-80
2023/11/11 09:46:56;;;;;;;10.40;7.40;;;;;;;-128.00;-1.00;-1.00;105433;1253;1004628;-80
2023/11/11 09:49:22;;;;;;;11.20;7.60;;;;;;;-128.00;-1.00;-1.00;105388;1252;1046295;-80
2023/11/11 09:51:49;;;;;;;10.10;7.20;;;;;;;-128.00;-1.00;-1.00;105437;1253;1004653;-80
2023/11/11 09:54:16;;;;;;;9.20;6.30;;;;;;;-128.00;-1.00;-1.00;105383;1252;1004590;-80
2023/11/11 09:56:43;;;;;;;15.90;8.50;;;;;;;-128.00;-1.00;-1.00;105416;1253;1004436;-79
2023/11/11 09:59:10;;;;;;;11.80;7.20;;;;;;;-128.00;-1.00;-1.00;105430;1253;1004403;-80
2023/11/11 10:01:38;;;;;;;9.40;6.60;;;;;;;-128.00;-1.00;-1.00;105406;1253;1004661;-79
2023/11/11 10:04:04;;;;;;;9.90;6.30;;;;;;;-128.00;-1.00;-1.00;105427;1253;1004829;-80
2023/11/11 10:06:32;;;;;;;10.00;6.60;;;;;;;-128.00;-1.00;-1.00;105400;1253;1005182;-80
2023/11/11 10:09:00;;;;;;;7.50;6.10;;;;;;;-128.00;-1.00;-1.00;105339;1253;1005013;-80
2023/11/11 10:11:26;;;;;;;9.60;5.90;;;;;;;-128.00;-1.00;-1.00;105407;1253;1004256;-80
2023/11/11 10:13:54;;;;;;;11.50;6.10;;;;;;;-128.00;-1.00;-1.00;105435;1252;1004968;-80
2023/11/11 10:16:25;;;;;;;7.60;5.80;;;;;;;-128.00;-1.00;-1.00;105450;1253;1004285;-80
2023/11/11 10:18:52;;;;;;;8.10;5.00;;;;;;;-128.00;-1.00;-1.00;105400;1253;1061281;-78
2023/11/11 10:21:20;;;;;;;10.50;7.10;;;;;;;-128.00;-1.00;-1.00;105328;1253;1004505;-79
2023/11/11 10:23:48;;;;;;;18.80;16.90;;;;;;;-128.00;-1.00;-1.00;105441;1253;1004239;-79
2023/11/11 10:26:17;;;;;;;14.20;12.00;;;;;;;-128.00;-1.00;-1.00;105400;1253;1003481;-79
2023/11/11 10:28:48;;;;;;;11.60;8.50;;;;;;;-128.00;-1.00;-1.00;105425;1252;1047285;-79
2023/11/11 10:31:15;;;;;;;9.50;7.10;;;;;;;-128.00;-1.00;-1.00;105588;1253;1061817;-78
2023/11/11 10:33:44;;;;;;;36.90;26.70;;;;;;;-128.00;-1.00;-1.00;105386;1253;1003890;-79
2023/11/11 10:36:11;;;;;;;;;;;;;;;-128.00;-1.00;-1.00;105420;1253;1059464;-79
2023/11/11 10:38:42;;;;;;;15.50;11.00;;;;;;;-128.00;-1.00;-1.00;105377;1253;1004600;-79
2023/11/11 10:41:09;;;;;;;12.80;8.90;;;;;;;-128.00;-1.00;-1.00;105426;1253;1045976;-79
2023/11/11 10:43:36;;;;;;;16.70;10.10;;;;;;;-128.00;-1.00;-1.00;105359;1253;1004519;-79
2023/11/11 10:46:02;;;;;;;17.20;10.40;;;;;;;-128.00;-1.00;-1.00;105371;1253;1004031;-79
2023/11/11 10:48:32;;;;;;;17.10;10.80;;;;;;;-128.00;-1.00;-1.00;105374;1253;1003630;-79
2023/11/11 10:51:00;;;;;;;27.30;17.20;;;;;;;-128.00;-1.00;-1.00;105405;1253;1045341;-79
2023/11/11 10:53:27;;;;;;;43.60;25.10;;;;;;;-128.00;-1.00;-1.00;105415;1252;1004102;-78
2023/11/11 10:55:54;;;;;;;34.40;19.70;;;;;;;-128.00;-1.00;-1.00;105264;1253;1004745;-79
2023/11/11 10:58:21;;;;;;;22.70;11.70;;;;;;;-128.00;-1.00;-1.00;105428;1253;1004033;-79
2023/11/11 11:00:49;;;;;;;42.00;20.80;;;;;;;-128.00;-1.00;-1.00;105391;1252;1004033;-79
2023/11/11 11:03:19;;;;;;;45.50;26.10;;;;;;;-128.00;-1.00;-1.00;105401;1253;1004249;-79
2023/11/11 11:06:21;;;;;;;30.50;17.90;;;;;;;-128.00;-1.00;-1.00;105431;1252;1047167;-79
2023/11/11 11:09:14;;;;;;;32.90;16.90;;;;;;;-128.00;-1.00;-1.00;105391;1253;1062022;-79